K&a Sp — 3FVZ3 — position and weather

sailwx.info

Track history (hours):
 
Tides and Currents Weather Stations Pressure Air Temp Water Temp Dewpoint Dewpoint Depression Visibility Wind Speed Wind Dir Waves Ship Positions

K&a Sp

Last reported at 2017-Jan-15 09:33 UTC. Time now 2017-Jan-21 06:25 UTC.
Position N 01°14' E 103°57'.

Length 177 m; draft 6.9 m.

Type: Cargo ship. MMSI: 354085000.

Date/timePositionNaut miles runAvg speedWind from/ knotsBaromVisibWave heightAir tempDewpointWater temp
2017-Jan-15 09:33N 01°14' E 103°57'5 5.2
2017-Jan-15 08:33N 01°15' E 103°52'0 0.1
2017-Jan-15 06:24N 01°15' E 103°53'0 0.0
2017-Jan-15 05:24N 01°15' E 103°53'0 0.2
2017-Jan-15 04:33N 01°15' E 103°53'0 0.1
2017-Jan-15 03:30N 01°15' E 103°52'0 0.0
2017-Jan-15 02:30N 01°15' E 103°52'0 0.0
2017-Jan-15 01:33N 01°15' E 103°52'0 0.0
2017-Jan-14 23:24N 01°15' E 103°52'0 0.0
2017-Jan-14 22:12N 01°15' E 103°52'0 0.0
2017-Jan-14 21:30N 01°15' E 103°52'0 0.0
2017-Jan-14 20:30N 01°15' E 103°52'0 0.0
2017-Jan-14 19:30N 01°15' E 103°52'0 0.0
2017-Jan-14 18:30N 01°15' E 103°52'0 0.1
2017-Jan-14 17:30N 01°15' E 103°52'0 0.0
2017-Jan-14 16:24N 01°15' E 103°52'0 0.0
2017-Jan-14 15:30N 01°15' E 103°52'0 0.0
2017-Jan-14 14:33N 01°15' E 103°52'0 0.0
2017-Jan-14 13:30N 01°15' E 103°52'0 0.0
2017-Jan-14 06:24N 01°15' E 103°53'0 0.1
2017-Jan-14 03:21N 01°15' E 103°52'0 0.0
2017-Jan-13 23:18N 01°15' E 103°52'0 0.0
2017-Jan-13 22:30N 01°15' E 103°52'0 0.0
2017-Jan-13 21:12N 01°15' E 103°52'0 0.0
2017-Jan-13 17:24N 01°15' E 103°52'0 0.1
2017-Jan-13 16:24N 01°15' E 103°52'0 0.0
2017-Jan-13 15:24N 01°15' E 103°52'0 0.0
2017-Jan-13 13:30N 01°15' E 103°52'0 0.0
2017-Jan-13 12:30N 01°15' E 103°52'0 0.0
2017-Jan-13 11:24N 01°15' E 103°52'0 0.1
2017-Jan-13 10:18N 01°15' E 103°53'0 0.1
2017-Jan-13 09:30N 01°15' E 103°53'0 0.0
2017-Jan-13 08:30N 01°15' E 103°53'0 0.1
2017-Jan-13 07:24N 01°15' E 103°52'0 0.1
2017-Jan-13 06:18N 01°15' E 103°53'0 0.2
2017-Jan-13 05:34N 01°15' E 103°52'6 6.2
2017-Jan-13 04:33N 01°15' E 103°46'  
2017-Jan-07 05:11N 01°18' E 103°44'5 8.0
2017-Jan-07 04:33N 01°14' E 103°47'8 7.8
2017-Jan-07 03:33N 01°14' E 103°55'  
Track history (hours):
 
Tides and Currents Weather Stations Pressure Air Temp Water Temp Dewpoint Dewpoint Depression Visibility Wind Speed Wind Dir Waves Ship Positions

K&a Sp

Last reported at 2017-Jan-15 09:33 UTC. Time now 2017-Jan-21 06:25 UTC.
Position N 01°14' E 103°57'.

Length 177 m; draft 6.9 m.

Type: Cargo ship. MMSI: 354085000.

Date/timePositionNaut miles runAvg speedWind from/ knotsBaromVisibWave heightAir tempDewpointWater temp
2017-Jan-15 09:33N 01°14' E 103°57'5 5.2
2017-Jan-15 08:33N 01°15' E 103°52'0 0.1
2017-Jan-15 06:24N 01°15' E 103°53'0 0.0
2017-Jan-15 05:24N 01°15' E 103°53'0 0.2
2017-Jan-15 04:33N 01°15' E 103°53'0 0.1
2017-Jan-15 03:30N 01°15' E 103°52'0 0.0
2017-Jan-15 02:30N 01°15' E 103°52'0 0.0
2017-Jan-15 01:33N 01°15' E 103°52'0 0.0
2017-Jan-14 23:24N 01°15' E 103°52'0 0.0
2017-Jan-14 22:12N 01°15' E 103°52'0 0.0
2017-Jan-14 21:30N 01°15' E 103°52'0 0.0
2017-Jan-14 20:30N 01°15' E 103°52'0 0.0
2017-Jan-14 19:30N 01°15' E 103°52'0 0.0
2017-Jan-14 18:30N 01°15' E 103°52'0 0.1
2017-Jan-14 17:30N 01°15' E 103°52'0 0.0
2017-Jan-14 16:24N 01°15' E 103°52'0 0.0
2017-Jan-14 15:30N 01°15' E 103°52'0 0.0
2017-Jan-14 14:33N 01°15' E 103°52'0 0.0
2017-Jan-14 13:30N 01°15' E 103°52'0 0.0
2017-Jan-14 06:24N 01°15' E 103°53'0 0.1
2017-Jan-14 03:21N 01°15' E 103°52'0 0.0
2017-Jan-13 23:18N 01°15' E 103°52'0 0.0
2017-Jan-13 22:30N 01°15' E 103°52'0 0.0
2017-Jan-13 21:12N 01°15' E 103°52'0 0.0
2017-Jan-13 17:24N 01°15' E 103°52'0 0.1
2017-Jan-13 16:24N 01°15' E 103°52'0 0.0
2017-Jan-13 15:24N 01°15' E 103°52'0 0.0
2017-Jan-13 13:30N 01°15' E 103°52'0 0.0
2017-Jan-13 12:30N 01°15' E 103°52'0 0.0
2017-Jan-13 11:24N 01°15' E 103°52'0 0.1
2017-Jan-13 10:18N 01°15' E 103°53'0 0.1
2017-Jan-13 09:30N 01°15' E 103°53'0 0.0
2017-Jan-13 08:30N 01°15' E 103°53'0 0.1
2017-Jan-13 07:24N 01°15' E 103°52'0 0.1
2017-Jan-13 06:18N 01°15' E 103°53'0 0.2
2017-Jan-13 05:34N 01°15' E 103°52'6 6.2
2017-Jan-13 04:33N 01°15' E 103°46'  
2017-Jan-07 05:11N 01°18' E 103°44'5 8.0
2017-Jan-07 04:33N 01°14' E 103°47'8 7.8
2017-Jan-07 03:33N 01°14' E 103°55'  

Dump ship's entire track history